»·PEaware :: WAT169 KDEN-KSNA

WAT169 :: KDEN-KSNA

FLIGHT INFORMATION

Flight Status: Arrived
Operator:
Walker Air Transport
More flights by this operator :: More flights under this callsign
Pilot: Marty P. (27464)
Aircraft: BOEING 737-800
(B738)
More flights by this aircraft type
Origin: KDEN Denver Intl
United States
Destination: KSNA John Wayne-Orange Co
United States
More flights between these airports :: More routes between these airports
Route: + / NATEE DSNEE4
File this flight plan on PilotEdge
Remarks:
Altitude:
(Current/Filed)
38,000ft
Speed:
(Current/Filed)
480kts
Departed: 19-Oct-20 08:04 PM
Arrived: 19-Oct-20 09:50 PM
Distance/Time
Traveled:
734nm/1:46
Distance/Time
To Go:
Arrived

Flight Plot

Page will automatically refresh every two minutes.

Flight plan parsing failed; only flown route is shown


Map Options




Map Legend


Flown Route
Filed Route
Departure Airport
Arrival Airport
Navaid (VOR, NDB)
Fix

Horizontal Profiles

Position Reports

Time Latitude Longitude Heading Altitude Ground
Speed
19-Oct-20 19:33 39.863575 -104.677852 177 5444ft 0kts
19-Oct-20 19:34 39.863575 -104.677852 177 5444ft 0kts
19-Oct-20 19:35 39.863575 -104.677852 177 5444ft 0kts
19-Oct-20 19:36 39.863575 -104.677852 177 5444ft 0kts
19-Oct-20 19:37 39.863575 -104.677852 177 5444ft 0kts
19-Oct-20 19:38 39.863575 -104.677852 177 5444ft 0kts
19-Oct-20 19:39 39.863575 -104.677852 177 5444ft 0kts
19-Oct-20 19:40 39.863575 -104.677852 177 5444ft 0kts
19-Oct-20 19:41 39.863575 -104.677852 177 5444ft 0kts
19-Oct-20 19:42 39.863575 -104.677852 177 5444ft 0kts
19-Oct-20 19:43 39.863575 -104.677852 177 5444ft 0kts
19-Oct-20 19:44 39.863575 -104.677852 177 5444ft 0kts
19-Oct-20 19:45 39.863575 -104.677852 177 5444ft 0kts
19-Oct-20 19:46 39.863575 -104.677852 177 5444ft 0kts
19-Oct-20 19:47 39.863575 -104.677852 177 5444ft 0kts
19-Oct-20 19:48 39.863575 -104.677852 177 5444ft 0kts
19-Oct-20 19:49 39.863575 -104.677852 177 5444ft 0kts
19-Oct-20 19:50 39.863729 -104.677859 177 5444ft 2kts
19-Oct-20 19:51 39.864325 -104.677885 177 5444ft 2kts
19-Oct-20 19:52 39.864779 -104.677629 267 5444ft 0kts
19-Oct-20 19:53 39.864785 -104.679657 270 5444ft 7kts
19-Oct-20 19:54 39.864492 -104.681814 217 5444ft 5kts
19-Oct-20 19:55 39.864256 -104.682991 271 5444ft 0kts
19-Oct-20 19:56 39.864256 -104.682991 271 5444ft 0kts
19-Oct-20 19:57 39.864090 -104.683682 224 5444ft 9kts
19-Oct-20 19:58 39.859003 -104.683970 180 5444ft 21kts
19-Oct-20 19:59 39.852367 -104.684050 180 5444ft 23kts
19-Oct-20 20:00 39.846817 -104.684112 180 5444ft 16kts
19-Oct-20 20:01 39.842476 -104.684162 180 5444ft 11kts
19-Oct-20 20:02 39.841641 -104.684173 180 5444ft 9kts
19-Oct-20 20:03 39.840710 -104.691710 270 5444ft 96kts
19-Oct-20 20:04 39.841323 -104.752131 271 6670ft 196kts
19-Oct-20 20:05 39.842203 -104.837557 269 8579ft 257kts
19-Oct-20 20:06 39.836568 -104.937536 256 10903ft 318kts
19-Oct-20 20:07 39.811080 -105.064694 256 12510ft 386kts
19-Oct-20 20:08 39.785099 -105.193841 258 16372ft 372kts
19-Oct-20 20:09 39.758349 -105.325670 258 18975ft 382kts
19-Oct-20 20:10 39.730671 -105.460983 258 21217ft 392kts
19-Oct-20 20:11 39.702290 -105.599188 258 23028ft 405kts
19-Oct-20 20:12 39.677328 -105.750921 261 23092ft 451kts
19-Oct-20 20:13 39.655942 -105.906695 262 25998ft 426kts
19-Oct-20 20:14 39.635349 -106.056808 262 27769ft 427kts
19-Oct-20 20:15 39.614344 -106.208750 262 29369ft 427kts
19-Oct-20 20:16 39.593260 -106.359767 262 31008ft 424kts
19-Oct-20 20:17 39.572171 -106.509381 262 32543ft 419kts
19-Oct-20 20:18 39.547830 -106.656386 256 33846ft 420kts
19-Oct-20 20:19 39.498923 -106.794598 245 35030ft 426kts
19-Oct-20 20:20 39.440131 -106.928014 245 36071ft 427kts
19-Oct-20 20:21 39.381271 -107.061489 245 36958ft 428kts
19-Oct-20 20:22 39.322466 -107.194753 246 37714ft 429kts
19-Oct-20 20:23 39.263408 -107.328510 246 38303ft 432kts
19-Oct-20 20:24 39.203036 -107.465299 246 38302ft 446kts
19-Oct-20 20:25 39.141124 -107.605411 246 38302ft 455kts
19-Oct-20 20:26 39.078142 -107.747705 245 38301ft 460kts
19-Oct-20 20:27 39.014360 -107.891574 245 38286ft 464kts
19-Oct-20 20:28 38.950241 -108.036081 245 38218ft 467kts
19-Oct-20 20:29 38.885700 -108.181449 245 38144ft 469kts
19-Oct-20 20:30 38.821165 -108.326669 245 38128ft 469kts
19-Oct-20 20:31 38.756544 -108.471984 245 38088ft 469kts
19-Oct-20 20:32 38.692047 -108.616903 245 38085ft 469kts
19-Oct-20 20:33 38.627438 -108.761876 245 38082ft 470kts
19-Oct-20 20:34 38.562690 -108.906991 245 38082ft 471kts
19-Oct-20 20:35 38.497559 -109.052861 245 38076ft 472kts
19-Oct-20 20:36 38.432548 -109.198356 245 38065ft 473kts
19-Oct-20 20:37 38.367209 -109.344471 245 38074ft 474kts
19-Oct-20 20:38 38.302013 -109.490157 245 38063ft 476kts
19-Oct-20 20:39 38.236456 -109.636524 245 38063ft 477kts
19-Oct-20 20:40 38.170567 -109.783434 245 38119ft 478kts
19-Oct-20 20:41 38.104644 -109.930282 245 38180ft 479kts
19-Oct-20 20:42 38.038496 -110.077521 245 38153ft 481kts
19-Oct-20 20:43 37.972393 -110.224582 245 38109ft 482kts
19-Oct-20 20:44 37.905991 -110.372137 245 38110ft 482kts
19-Oct-20 20:45 37.839540 -110.519681 245 38109ft 483kts
19-Oct-20 20:46 37.772867 -110.667590 244 38109ft 484kts
19-Oct-20 20:47 37.705893 -110.816000 244 38109ft 487kts
19-Oct-20 20:48 37.638698 -110.964769 244 38099ft 489kts
19-Oct-20 20:49 37.571045 -111.114417 244 38060ft 492kts
19-Oct-20 20:50 37.503029 -111.264732 244 38054ft 494kts
19-Oct-20 20:51 37.434843 -111.415272 244 38055ft 496kts
19-Oct-20 20:52 37.366468 -111.566085 244 38054ft 497kts
19-Oct-20 20:53 37.297977 -111.717012 244 38143ft 497kts
19-Oct-20 20:54 37.229485 -111.867833 244 38219ft 498kts
19-Oct-20 20:55 37.160773 -112.019008 243 38222ft 499kts
19-Oct-20 20:56 37.091762 -112.170712 243 38174ft 502kts
19-Oct-20 20:57 37.022683 -112.322409 243 38173ft 502kts
19-Oct-20 20:59 36.953468 -112.474257 243 38173ft 503kts
19-Oct-20 21:00 36.884282 -112.625900 243 38172ft 503kts
19-Oct-20 21:01 36.815038 -112.777563 243 38173ft 503kts
19-Oct-20 21:02 36.745752 -112.929190 243 38119ft 504kts
19-Oct-20 21:03 36.676383 -113.080865 243 38054ft 505kts
19-Oct-20 21:04 36.606815 -113.232827 243 38064ft 504kts
19-Oct-20 21:05 36.537456 -113.384197 243 38092ft 504kts
19-Oct-20 21:06 36.468110 -113.535404 243 38118ft 505kts
19-Oct-20 21:07 36.398557 -113.686932 242 38119ft 506kts
19-Oct-20 21:08 36.328898 -113.838611 242 38118ft 507kts
19-Oct-20 21:09 36.259131 -113.990381 242 38119ft 507kts
19-Oct-20 21:10 36.189085 -114.142618 242 38062ft 509kts
19-Oct-20 21:11 36.119021 -114.294745 242 38009ft 510kts
19-Oct-20 21:12 36.048916 -114.446825 242 38009ft 509kts
19-Oct-20 21:13 35.979150 -114.598047 242 38008ft 509kts
19-Oct-20 21:14 35.909026 -114.749968 242 37999ft 508kts
19-Oct-20 21:15 35.839370 -114.900771 242 37992ft 507kts
19-Oct-20 21:16 35.769612 -115.051675 242 37999ft 506kts
19-Oct-20 21:17 35.699976 -115.202222 242 38016ft 506kts
19-Oct-20 21:17 35.640821 -115.327115 237 38016ft 507kts
19-Oct-20 21:19 35.536755 -115.483758 230 38018ft 509kts
19-Oct-20 21:19 35.458246 -115.591601 229 37998ft 510kts
19-Oct-20 21:20 35.362632 -115.720618 228 37960ft 510kts
19-Oct-20 21:21 35.267103 -115.848517 228 37954ft 510kts
19-Oct-20 21:22 35.169912 -115.974408 227 37543ft 512kts
19-Oct-20 21:23 35.072586 -116.096311 227 34338ft 496kts
19-Oct-20 21:24 34.979076 -116.213681 227 31211ft 483kts
19-Oct-20 21:25 34.885915 -116.330420 228 29116ft 485kts
19-Oct-20 21:26 34.796272 -116.443984 229 27101ft 429kts
19-Oct-20 21:27 34.716934 -116.544878 229 25409ft 404kts
19-Oct-20 21:28 34.632713 -116.633965 222 23389ft 399kts
19-Oct-20 21:29 34.548391 -116.716545 221 21195ft 387kts
19-Oct-20 21:30 34.468746 -116.800804 226 19032ft 377kts
19-Oct-20 21:31 34.393787 -116.887825 226 16510ft 365kts
19-Oct-20 21:32 34.322622 -116.970201 225 14726ft 348kts
19-Oct-20 21:33 34.250131 -117.045811 213 14025ft 344kts
19-Oct-20 21:34 34.166730 -117.104976 207 12708ft 342kts
19-Oct-20 21:35 34.079927 -117.151596 205 12018ft 341kts
19-Oct-20 21:36 33.995262 -117.203629 222 12013ft 337kts
19-Oct-20 21:37 33.932590 -117.285464 231 10625ft 323kts
19-Oct-20 21:38 33.876044 -117.365569 232 9100ft 296kts
19-Oct-20 21:39 33.827143 -117.434699 234 7973ft 230kts
19-Oct-20 21:40 33.812471 -117.497053 271 6875ft 195kts
19-Oct-20 21:41 33.812230 -117.560340 271 6306ft 189kts
19-Oct-20 21:42 33.818854 -117.624212 300 5999ft 194kts
19-Oct-20 21:43 33.845355 -117.678037 301 5026ft 189kts
19-Oct-20 21:44 33.858070 -117.736250 236 3139ft 196kts
19-Oct-20 21:45 33.820679 -117.777069 207 2975ft 188kts
19-Oct-20 21:46 33.773872 -117.806505 208 2132ft 185kts
19-Oct-20 21:47 33.734794 -117.831349 207 1267ft 148kts
19-Oct-20 21:48 33.698606 -117.854304 207 471ft 146kts
19-Oct-20 21:49 33.671028 -117.871778 207 66ft 21kts
19-Oct-20 21:50 33.670612 -117.869380 40 66ft 19kts
19-Oct-20 21:51 33.674616 -117.866148 27 66ft 13kts
19-Oct-20 21:52 33.675014 -117.865093 118 66ft 0kts

Navigation Log

Ident Type
Flight plan parsing failed, navigation log unavailable